sensor_id;sensor_type;location;lat;lon;timestamp;P1;durP1;ratioP1;P2;durP2;ratioP2
78148;SDS011;67396;42.664;23.382;2023-03-14T00:01:46;5.97;;;4.15;;
78148;SDS011;67396;42.664;23.382;2023-03-14T00:04:12;4.13;;;3.33;;
78148;SDS011;67396;42.664;23.382;2023-03-14T00:06:37;5.90;;;3.67;;
78148;SDS011;67396;42.664;23.382;2023-03-14T00:09:03;5.00;;;3.33;;
78148;SDS011;67396;42.664;23.382;2023-03-14T00:11:28;3.63;;;2.80;;
78148;SDS011;67396;42.664;23.382;2023-03-14T00:13:54;5.82;;;3.03;;
78148;SDS011;67396;42.664;23.382;2023-03-14T00:16:20;5.22;;;4.28;;
78148;SDS011;67396;42.664;23.382;2023-03-14T00:18:46;7.63;;;4.50;;
78148;SDS011;67396;42.664;23.382;2023-03-14T00:21:12;13.15;;;5.78;;
78148;SDS011;67396;42.664;23.382;2023-03-14T00:23:38;8.32;;;4.32;;
78148;SDS011;67396;42.664;23.382;2023-03-14T00:26:12;9.73;;;4.55;;
78148;SDS011;67396;42.664;23.382;2023-03-14T00:28:39;9.15;;;4.75;;
78148;SDS011;67396;42.664;23.382;2023-03-14T00:31:06;7.40;;;4.68;;
78148;SDS011;67396;42.664;23.382;2023-03-14T00:33:34;7.45;;;4.40;;
78148;SDS011;67396;42.664;23.382;2023-03-14T00:36:01;8.70;;;4.88;;
78148;SDS011;67396;42.664;23.382;2023-03-14T00:38:31;8.00;;;4.85;;
78148;SDS011;67396;42.664;23.382;2023-03-14T00:40:58;10.05;;;5.05;;
78148;SDS011;67396;42.664;23.382;2023-03-14T00:43:23;10.82;;;4.95;;
78148;SDS011;67396;42.664;23.382;2023-03-14T00:45:50;9.68;;;4.97;;
78148;SDS011;67396;42.664;23.382;2023-03-14T00:48:16;8.07;;;4.85;;
78148;SDS011;67396;42.664;23.382;2023-03-14T00:50:45;10.45;;;4.97;;
78148;SDS011;67396;42.664;23.382;2023-03-14T00:53:11;12.52;;;5.85;;
78148;SDS011;67396;42.664;23.382;2023-03-14T00:55:40;14.90;;;6.78;;
78148;SDS011;67396;42.664;23.382;2023-03-14T00:58:10;21.15;;;8.32;;
78148;SDS011;67396;42.664;23.382;2023-03-14T01:00:37;16.30;;;9.15;;
78148;SDS011;67396;42.664;23.382;2023-03-14T01:03:03;13.65;;;7.05;;
78148;SDS011;67396;42.664;23.382;2023-03-14T01:05:29;9.75;;;5.93;;
78148;SDS011;67396;42.664;23.382;2023-03-14T01:07:55;12.88;;;6.47;;
78148;SDS011;67396;42.664;23.382;2023-03-14T01:10:21;19.05;;;8.32;;
78148;SDS011;67396;42.664;23.382;2023-03-14T01:12:46;21.23;;;11.15;;
78148;SDS011;67396;42.664;23.382;2023-03-14T01:15:11;25.02;;;8.93;;
78148;SDS011;67396;42.664;23.382;2023-03-14T01:17:37;13.10;;;6.75;;
78148;SDS011;67396;42.664;23.382;2023-03-14T01:20:04;16.67;;;7.75;;
78148;SDS011;67396;42.664;23.382;2023-03-14T01:22:31;12.98;;;6.88;;
78148;SDS011;67396;42.664;23.382;2023-03-14T01:24:56;12.55;;;6.68;;
78148;SDS011;67396;42.664;23.382;2023-03-14T01:27:22;13.07;;;6.60;;
78148;SDS011;67396;42.664;23.382;2023-03-14T01:29:47;10.30;;;5.03;;
78148;SDS011;67396;42.664;23.382;2023-03-14T01:32:13;9.80;;;4.35;;
78148;SDS011;67396;42.664;23.382;2023-03-14T01:34:38;8.45;;;4.45;;
78148;SDS011;67396;42.664;23.382;2023-03-14T01:37:04;9.18;;;4.93;;
78148;SDS011;67396;42.664;23.382;2023-03-14T01:39:30;6.93;;;4.10;;
78148;SDS011;67396;42.664;23.382;2023-03-14T01:41:56;8.63;;;4.07;;
78148;SDS011;67396;42.664;23.382;2023-03-14T01:44:21;7.50;;;3.92;;
78148;SDS011;67396;42.664;23.382;2023-03-14T01:46:46;8.80;;;4.72;;
78148;SDS011;67396;42.664;23.382;2023-03-14T01:52:02;7.28;;;4.68;;
78148;SDS011;67396;42.664;23.382;2023-03-14T01:57:12;9.13;;;4.80;;
78148;SDS011;67396;42.664;23.382;2023-03-14T01:59:39;9.57;;;5.00;;
78148;SDS011;67396;42.664;23.382;2023-03-14T02:02:07;10.40;;;4.40;;
78148;SDS011;67396;42.664;23.382;2023-03-14T02:04:36;9.05;;;4.75;;
78148;SDS011;67396;42.664;23.382;2023-03-14T02:07:19;10.00;;;5.13;;
78148;SDS011;67396;42.664;23.382;2023-03-14T02:09:50;11.02;;;5.28;;
78148;SDS011;67396;42.664;23.382;2023-03-14T02:12:17;11.38;;;5.38;;
78148;SDS011;67396;42.664;23.382;2023-03-14T02:14:45;14.73;;;6.65;;
78148;SDS011;67396;42.664;23.382;2023-03-14T02:17:13;13.70;;;5.93;;
78148;SDS011;67396;42.664;23.382;2023-03-14T02:19:49;13.63;;;6.10;;
78148;SDS011;67396;42.664;23.382;2023-03-14T02:22:22;14.98;;;7.00;;
78148;SDS011;67396;42.664;23.382;2023-03-14T02:25:06;16.05;;;7.40;;
78148;SDS011;67396;42.664;23.382;2023-03-14T02:27:35;16.90;;;8.13;;
78148;SDS011;67396;42.664;23.382;2023-03-14T02:30:05;14.30;;;8.27;;
78148;SDS011;67396;42.664;23.382;2023-03-14T02:32:37;13.27;;;7.35;;
78148;SDS011;67396;42.664;23.382;2023-03-14T02:35:07;21.45;;;9.45;;
78148;SDS011;67396;42.664;23.382;2023-03-14T02:37:37;13.95;;;9.00;;
78148;SDS011;67396;42.664;23.382;2023-03-14T02:40:06;16.48;;;9.60;;
78148;SDS011;67396;42.664;23.382;2023-03-14T02:42:32;18.30;;;9.55;;
78148;SDS011;67396;42.664;23.382;2023-03-14T02:47:47;18.70;;;9.73;;
78148;SDS011;67396;42.664;23.382;2023-03-14T02:50:19;21.05;;;10.00;;
78148;SDS011;67396;42.664;23.382;2023-03-14T02:52:47;22.85;;;10.38;;
78148;SDS011;67396;42.664;23.382;2023-03-14T02:55:13;20.17;;;10.70;;
78148;SDS011;67396;42.664;23.382;2023-03-14T02:57:39;19.45;;;12.32;;
78148;SDS011;67396;42.664;23.382;2023-03-14T03:00:05;20.42;;;10.15;;
78148;SDS011;67396;42.664;23.382;2023-03-14T03:02:31;24.00;;;13.38;;
78148;SDS011;67396;42.664;23.382;2023-03-14T03:04:57;23.17;;;11.68;;
78148;SDS011;67396;42.664;23.382;2023-03-14T03:07:23;23.02;;;11.57;;
78148;SDS011;67396;42.664;23.382;2023-03-14T03:09:48;23.23;;;11.82;;
78148;SDS011;67396;42.664;23.382;2023-03-14T03:12:14;23.58;;;12.15;;
78148;SDS011;67396;42.664;23.382;2023-03-14T03:14:39;25.75;;;12.98;;
78148;SDS011;67396;42.664;23.382;2023-03-14T03:17:05;21.58;;;13.27;;
78148;SDS011;67396;42.664;23.382;2023-03-14T03:19:31;24.23;;;10.98;;
78148;SDS011;67396;42.664;23.382;2023-03-14T03:21:57;23.08;;;11.90;;
78148;SDS011;67396;42.664;23.382;2023-03-14T03:24:23;19.77;;;11.10;;
78148;SDS011;67396;42.664;23.382;2023-03-14T03:26:49;21.92;;;11.82;;
78148;SDS011;67396;42.664;23.382;2023-03-14T03:29:15;21.33;;;11.05;;
78148;SDS011;67396;42.664;23.382;2023-03-14T03:31:40;16.08;;;8.82;;
78148;SDS011;67396;42.664;23.382;2023-03-14T03:34:06;13.93;;;7.80;;
78148;SDS011;67396;42.664;23.382;2023-03-14T03:36:31;15.88;;;8.13;;
78148;SDS011;67396;42.664;23.382;2023-03-14T03:38:57;17.23;;;9.25;;
78148;SDS011;67396;42.664;23.382;2023-03-14T03:41:25;17.65;;;9.32;;
78148;SDS011;67396;42.664;23.382;2023-03-14T03:43:51;17.88;;;7.50;;
78148;SDS011;67396;42.664;23.382;2023-03-14T03:46:16;15.75;;;8.73;;
78148;SDS011;67396;42.664;23.382;2023-03-14T03:48:41;16.02;;;8.10;;
78148;SDS011;67396;42.664;23.382;2023-03-14T03:51:07;17.02;;;9.38;;
78148;SDS011;67396;42.664;23.382;2023-03-14T03:53:36;15.05;;;8.02;;
78148;SDS011;67396;42.664;23.382;2023-03-14T03:56:01;20.80;;;7.93;;
78148;SDS011;67396;42.664;23.382;2023-03-14T03:58:26;19.70;;;8.73;;
78148;SDS011;67396;42.664;23.382;2023-03-14T04:00:52;12.90;;;8.48;;
78148;SDS011;67396;42.664;23.382;2023-03-14T04:03:17;14.57;;;8.52;;
78148;SDS011;67396;42.664;23.382;2023-03-14T04:05:42;12.60;;;7.90;;
78148;SDS011;67396;42.664;23.382;2023-03-14T04:08:08;16.52;;;8.35;;
78148;SDS011;67396;42.664;23.382;2023-03-14T04:10:34;20.08;;;8.85;;
78148;SDS011;67396;42.664;23.382;2023-03-14T04:13:00;15.80;;;8.70;;
78148;SDS011;67396;42.664;23.382;2023-03-14T04:15:25;20.60;;;9.70;;
78148;SDS011;67396;42.664;23.382;2023-03-14T04:17:51;20.80;;;9.68;;
78148;SDS011;67396;42.664;23.382;2023-03-14T04:20:20;23.55;;;10.35;;
78148;SDS011;67396;42.664;23.382;2023-03-14T04:22:46;18.08;;;10.38;;
78148;SDS011;67396;42.664;23.382;2023-03-14T04:25:11;18.25;;;9.07;;
78148;SDS011;67396;42.664;23.382;2023-03-14T04:27:37;19.05;;;10.27;;
78148;SDS011;67396;42.664;23.382;2023-03-14T04:30:02;17.35;;;9.55;;
78148;SDS011;67396;42.664;23.382;2023-03-14T04:32:28;18.58;;;9.88;;
78148;SDS011;67396;42.664;23.382;2023-03-14T04:34:53;16.58;;;9.95;;
78148;SDS011;67396;42.664;23.382;2023-03-14T04:37:19;19.35;;;10.50;;
78148;SDS011;67396;42.664;23.382;2023-03-14T04:39:44;18.60;;;10.93;;
78148;SDS011;67396;42.664;23.382;2023-03-14T04:42:10;20.77;;;11.85;;
78148;SDS011;67396;42.664;23.382;2023-03-14T04:44:35;20.33;;;10.13;;
78148;SDS011;67396;42.664;23.382;2023-03-14T04:47:01;20.48;;;9.90;;
78148;SDS011;67396;42.664;23.382;2023-03-14T04:49:26;22.33;;;12.00;;
78148;SDS011;67396;42.664;23.382;2023-03-14T04:51:52;20.15;;;11.07;;
78148;SDS011;67396;42.664;23.382;2023-03-14T04:54:17;19.10;;;9.52;;
78148;SDS011;67396;42.664;23.382;2023-03-14T04:56:43;17.00;;;10.25;;
78148;SDS011;67396;42.664;23.382;2023-03-14T04:59:08;24.75;;;12.15;;
78148;SDS011;67396;42.664;23.382;2023-03-14T05:01:34;22.10;;;11.93;;
78148;SDS011;67396;42.664;23.382;2023-03-14T05:04:00;22.30;;;12.32;;
78148;SDS011;67396;42.664;23.382;2023-03-14T05:06:25;17.92;;;11.18;;
78148;SDS011;67396;42.664;23.382;2023-03-14T05:08:50;24.70;;;12.80;;
78148;SDS011;67396;42.664;23.382;2023-03-14T05:11:16;22.15;;;12.82;;
78148;SDS011;67396;42.664;23.382;2023-03-14T05:13:42;24.20;;;12.50;;
78148;SDS011;67396;42.664;23.382;2023-03-14T05:16:08;22.13;;;11.38;;
78148;SDS011;67396;42.664;23.382;2023-03-14T05:18:35;25.77;;;11.52;;
78148;SDS011;67396;42.664;23.382;2023-03-14T05:21:01;26.77;;;11.43;;
78148;SDS011;67396;42.664;23.382;2023-03-14T05:23:26;27.15;;;13.30;;
78148;SDS011;67396;42.664;23.382;2023-03-14T05:25:52;26.95;;;13.45;;
78148;SDS011;67396;42.664;23.382;2023-03-14T05:28:18;42.35;;;17.13;;
78148;SDS011;67396;42.664;23.382;2023-03-14T05:30:43;40.53;;;16.02;;
78148;SDS011;67396;42.664;23.382;2023-03-14T05:33:08;31.35;;;17.40;;
78148;SDS011;67396;42.664;23.382;2023-03-14T05:35:34;31.13;;;16.55;;
78148;SDS011;67396;42.664;23.382;2023-03-14T05:37:59;37.38;;;18.60;;
78148;SDS011;67396;42.664;23.382;2023-03-14T05:40:25;43.47;;;20.85;;
78148;SDS011;67396;42.664;23.382;2023-03-14T05:42:50;44.53;;;21.70;;
78148;SDS011;67396;42.664;23.382;2023-03-14T05:45:16;46.55;;;22.67;;
78148;SDS011;67396;42.664;23.382;2023-03-14T05:47:41;48.97;;;22.17;;
78148;SDS011;67396;42.664;23.382;2023-03-14T05:50:07;40.28;;;20.33;;
78148;SDS011;67396;42.664;23.382;2023-03-14T05:52:33;29.67;;;17.10;;
78148;SDS011;67396;42.664;23.382;2023-03-14T05:54:58;43.30;;;20.35;;
78148;SDS011;67396;42.664;23.382;2023-03-14T05:57:24;31.73;;;17.85;;
78148;SDS011;67396;42.664;23.382;2023-03-14T05:59:49;37.13;;;17.52;;
78148;SDS011;67396;42.664;23.382;2023-03-14T06:02:18;28.48;;;15.98;;
78148;SDS011;67396;42.664;23.382;2023-03-14T06:04:43;43.17;;;21.05;;
78148;SDS011;67396;42.664;23.382;2023-03-14T06:07:09;40.72;;;18.92;;
78148;SDS011;67396;42.664;23.382;2023-03-14T06:09:34;49.80;;;24.60;;
78148;SDS011;67396;42.664;23.382;2023-03-14T06:11:59;39.75;;;19.95;;
78148;SDS011;67396;42.664;23.382;2023-03-14T06:14:25;39.88;;;18.05;;
78148;SDS011;67396;42.664;23.382;2023-03-14T06:16:56;42.15;;;20.75;;
78148;SDS011;67396;42.664;23.382;2023-03-14T06:19:24;34.85;;;18.35;;
78148;SDS011;67396;42.664;23.382;2023-03-14T06:21:50;38.40;;;19.75;;
78148;SDS011;67396;42.664;23.382;2023-03-14T06:24:16;48.90;;;25.52;;
78148;SDS011;67396;42.664;23.382;2023-03-14T06:26:45;31.27;;;16.92;;
78148;SDS011;67396;42.664;23.382;2023-03-14T06:29:10;32.03;;;17.25;;
78148;SDS011;67396;42.664;23.382;2023-03-14T06:31:36;35.85;;;15.57;;
78148;SDS011;67396;42.664;23.382;2023-03-14T06:34:01;43.25;;;17.27;;
78148;SDS011;67396;42.664;23.382;2023-03-14T06:36:27;34.40;;;16.77;;
78148;SDS011;67396;42.664;23.382;2023-03-14T06:38:52;40.83;;;16.75;;
78148;SDS011;67396;42.664;23.382;2023-03-14T06:41:18;29.17;;;14.15;;
78148;SDS011;67396;42.664;23.382;2023-03-14T06:43:44;29.90;;;14.98;;
78148;SDS011;67396;42.664;23.382;2023-03-14T06:46:09;29.17;;;14.77;;
78148;SDS011;67396;42.664;23.382;2023-03-14T06:48:35;38.78;;;15.90;;
78148;SDS011;67396;42.664;23.382;2023-03-14T06:51:00;33.42;;;15.88;;
78148;SDS011;67396;42.664;23.382;2023-03-14T06:53:26;41.72;;;14.43;;
78148;SDS011;67396;42.664;23.382;2023-03-14T06:55:57;25.75;;;13.75;;
78148;SDS011;67396;42.664;23.382;2023-03-14T06:58:28;19.05;;;12.57;;
78148;SDS011;67396;42.664;23.382;2023-03-14T07:00:54;30.90;;;14.20;;
78148;SDS011;67396;42.664;23.382;2023-03-14T07:03:22;28.60;;;15.15;;
78148;SDS011;67396;42.664;23.382;2023-03-14T07:05:48;25.58;;;14.02;;
78148;SDS011;67396;42.664;23.382;2023-03-14T07:08:19;25.90;;;13.50;;
78148;SDS011;67396;42.664;23.382;2023-03-14T07:10:44;18.15;;;12.65;;
78148;SDS011;67396;42.664;23.382;2023-03-14T07:13:10;18.17;;;12.15;;
78148;SDS011;67396;42.664;23.382;2023-03-14T07:15:35;16.83;;;11.75;;
78148;SDS011;67396;42.664;23.382;2023-03-14T07:18:01;25.15;;;11.70;;
78148;SDS011;67396;42.664;23.382;2023-03-14T07:20:32;14.93;;;10.52;;
78148;SDS011;67396;42.664;23.382;2023-03-14T07:23:00;18.55;;;10.25;;
78148;SDS011;67396;42.664;23.382;2023-03-14T07:25:27;18.67;;;10.90;;
78148;SDS011;67396;42.664;23.382;2023-03-14T07:27:53;17.65;;;11.10;;
78148;SDS011;67396;42.664;23.382;2023-03-14T07:30:18;17.77;;;11.70;;
78148;SDS011;67396;42.664;23.382;2023-03-14T07:32:44;21.65;;;12.52;;
78148;SDS011;67396;42.664;23.382;2023-03-14T07:35:09;18.83;;;12.55;;
78148;SDS011;67396;42.664;23.382;2023-03-14T07:37:35;34.22;;;12.65;;
78148;SDS011;67396;42.664;23.382;2023-03-14T07:40:00;24.60;;;11.80;;
78148;SDS011;67396;42.664;23.382;2023-03-14T07:42:26;18.50;;;11.50;;
78148;SDS011;67396;42.664;23.382;2023-03-14T07:44:51;29.67;;;12.98;;
78148;SDS011;67396;42.664;23.382;2023-03-14T07:47:17;22.10;;;12.55;;
78148;SDS011;67396;42.664;23.382;2023-03-14T07:49:42;23.27;;;12.80;;
78148;SDS011;67396;42.664;23.382;2023-03-14T07:52:08;20.55;;;11.88;;
78148;SDS011;67396;42.664;23.382;2023-03-14T07:54:33;20.33;;;10.77;;
78148;SDS011;67396;42.664;23.382;2023-03-14T07:56:58;20.10;;;13.40;;
78148;SDS011;67396;42.664;23.382;2023-03-14T07:59:25;24.27;;;12.18;;
78148;SDS011;67396;42.664;23.382;2023-03-14T08:01:52;21.27;;;11.20;;
78148;SDS011;67396;42.664;23.382;2023-03-14T08:04:17;21.17;;;12.20;;
78148;SDS011;67396;42.664;23.382;2023-03-14T08:06:43;23.30;;;11.13;;
78148;SDS011;67396;42.664;23.382;2023-03-14T08:09:08;18.45;;;9.73;;
78148;SDS011;67396;42.664;23.382;2023-03-14T08:11:34;17.27;;;10.07;;
78148;SDS011;67396;42.664;23.382;2023-03-14T08:13:59;17.40;;;10.95;;
78148;SDS011;67396;42.664;23.382;2023-03-14T08:16:25;17.00;;;9.95;;
78148;SDS011;67396;42.664;23.382;2023-03-14T08:18:50;20.35;;;10.15;;
78148;SDS011;67396;42.664;23.382;2023-03-14T08:21:16;14.43;;;9.85;;
78148;SDS011;67396;42.664;23.382;2023-03-14T08:23:41;19.23;;;8.88;;
78148;SDS011;67396;42.664;23.382;2023-03-14T08:26:07;19.45;;;9.13;;
78148;SDS011;67396;42.664;23.382;2023-03-14T08:28:32;18.50;;;9.50;;
78148;SDS011;67396;42.664;23.382;2023-03-14T08:30:58;14.70;;;9.18;;
78148;SDS011;67396;42.664;23.382;2023-03-14T08:33:25;23.90;;;9.43;;
78148;SDS011;67396;42.664;23.382;2023-03-14T08:35:52;16.38;;;8.90;;
78148;SDS011;67396;42.664;23.382;2023-03-14T08:38:18;16.83;;;8.68;;
78148;SDS011;67396;42.664;23.382;2023-03-14T08:40:44;12.52;;;8.00;;
78148;SDS011;67396;42.664;23.382;2023-03-14T08:43:09;14.95;;;8.80;;
78148;SDS011;67396;42.664;23.382;2023-03-14T08:45:35;16.30;;;8.45;;
78148;SDS011;67396;42.664;23.382;2023-03-14T08:48:00;16.48;;;8.43;;
78148;SDS011;67396;42.664;23.382;2023-03-14T08:50:26;14.75;;;8.88;;
78148;SDS011;67396;42.664;23.382;2023-03-14T08:52:51;19.23;;;8.95;;
78148;SDS011;67396;42.664;23.382;2023-03-14T08:55:17;13.98;;;8.18;;
78148;SDS011;67396;42.664;23.382;2023-03-14T08:57:42;13.68;;;6.45;;
78148;SDS011;67396;42.664;23.382;2023-03-14T09:00:08;16.02;;;8.18;;
78148;SDS011;67396;42.664;23.382;2023-03-14T09:02:39;15.40;;;8.27;;
78148;SDS011;67396;42.664;23.382;2023-03-14T09:05:05;11.63;;;7.43;;
78148;SDS011;67396;42.664;23.382;2023-03-14T09:07:39;16.45;;;8.85;;
78148;SDS011;67396;42.664;23.382;2023-03-14T09:10:35;13.55;;;7.97;;
78148;SDS011;67396;42.664;23.382;2023-03-14T09:13:54;14.77;;;7.40;;
78148;SDS011;67396;42.664;23.382;2023-03-14T09:16:58;20.95;;;6.32;;
78148;SDS011;67396;42.664;23.382;2023-03-14T09:19:38;11.25;;;6.50;;
78148;SDS011;67396;42.664;23.382;2023-03-14T09:22:28;11.52;;;6.60;;
78148;SDS011;67396;42.664;23.382;2023-03-14T09:25:29;13.00;;;7.28;;
78148;SDS011;67396;42.664;23.382;2023-03-14T09:28:30;10.57;;;6.40;;
78148;SDS011;67396;42.664;23.382;2023-03-14T09:31:04;11.93;;;6.82;;
78148;SDS011;67396;42.664;23.382;2023-03-14T09:33:34;19.27;;;8.07;;
78148;SDS011;67396;42.664;23.382;2023-03-14T09:36:00;15.45;;;8.23;;
78148;SDS011;67396;42.664;23.382;2023-03-14T09:38:26;14.10;;;9.15;;
78148;SDS011;67396;42.664;23.382;2023-03-14T09:40:52;22.15;;;9.13;;
78148;SDS011;67396;42.664;23.382;2023-03-14T09:43:19;20.35;;;9.65;;
78148;SDS011;67396;42.664;23.382;2023-03-14T09:45:48;17.58;;;9.00;;
78148;SDS011;67396;42.664;23.382;2023-03-14T09:48:22;19.60;;;9.43;;
78148;SDS011;67396;42.664;23.382;2023-03-14T09:50:54;16.67;;;8.98;;
78148;SDS011;67396;42.664;23.382;2023-03-14T09:53:23;10.05;;;6.18;;
78148;SDS011;67396;42.664;23.382;2023-03-14T09:55:53;11.50;;;6.75;;
78148;SDS011;67396;42.664;23.382;2023-03-14T09:58:23;13.70;;;6.45;;
78148;SDS011;67396;42.664;23.382;2023-03-14T10:00:50;12.48;;;6.07;;
78148;SDS011;67396;42.664;23.382;2023-03-14T10:03:31;10.25;;;6.80;;
78148;SDS011;67396;42.664;23.382;2023-03-14T10:05:58;11.52;;;6.90;;
78148;SDS011;67396;42.664;23.382;2023-03-14T10:08:24;10.30;;;5.85;;
78148;SDS011;67396;42.664;23.382;2023-03-14T10:10:52;14.68;;;6.65;;
78148;SDS011;67396;42.664;23.382;2023-03-14T10:13:23;10.68;;;5.82;;
78148;SDS011;67396;42.664;23.382;2023-03-14T10:16:02;13.95;;;5.85;;
78148;SDS011;67396;42.664;23.382;2023-03-14T10:18:33;12.60;;;6.55;;
78148;SDS011;67396;42.664;23.382;2023-03-14T10:21:21;14.27;;;6.03;;
78148;SDS011;67396;42.664;23.382;2023-03-14T10:24:10;11.80;;;5.55;;
78148;SDS011;67396;42.664;23.382;2023-03-14T10:27:03;9.30;;;6.10;;
78148;SDS011;67396;42.664;23.382;2023-03-14T10:29:31;12.75;;;4.63;;
78148;SDS011;67396;42.664;23.382;2023-03-14T10:32:02;9.68;;;5.03;;
78148;SDS011;67396;42.664;23.382;2023-03-14T10:34:32;6.38;;;4.97;;
78148;SDS011;67396;42.664;23.382;2023-03-14T10:40:22;9.02;;;4.07;;
78148;SDS011;67396;42.664;23.382;2023-03-14T10:46:45;5.53;;;3.72;;
78148;SDS011;67396;42.664;23.382;2023-03-14T10:49:45;8.75;;;3.90;;
78148;SDS011;67396;42.664;23.382;2023-03-14T10:52:50;6.72;;;4.15;;
78148;SDS011;67396;42.664;23.382;2023-03-14T10:55:30;6.30;;;3.80;;
78148;SDS011;67396;42.664;23.382;2023-03-14T10:58:23;6.18;;;3.63;;
78148;SDS011;67396;42.664;23.382;2023-03-14T11:03:37;4.80;;;3.67;;
78148;SDS011;67396;42.664;23.382;2023-03-14T11:06:12;7.13;;;3.85;;
78148;SDS011;67396;42.664;23.382;2023-03-14T11:11:25;9.63;;;3.65;;
78148;SDS011;67396;42.664;23.382;2023-03-14T11:19:57;5.85;;;3.58;;
78148;SDS011;67396;42.664;23.382;2023-03-14T11:30:54;4.28;;;3.38;;
78148;SDS011;67396;42.664;23.382;2023-03-14T11:33:37;6.50;;;3.72;;
78148;SDS011;67396;42.664;23.382;2023-03-14T11:36:10;5.32;;;3.50;;
78148;SDS011;67396;42.664;23.382;2023-03-14T11:38:46;7.30;;;3.85;;
78148;SDS011;67396;42.664;23.382;2023-03-14T11:48:10;8.35;;;3.30;;
78148;SDS011;67396;42.664;23.382;2023-03-14T11:54:32;5.38;;;3.58;;
78148;SDS011;67396;42.664;23.382;2023-03-14T11:57:37;7.78;;;3.20;;
78148;SDS011;67396;42.664;23.382;2023-03-14T12:00:27;4.68;;;2.85;;
78148;SDS011;67396;42.664;23.382;2023-03-14T12:03:00;4.93;;;2.47;;
78148;SDS011;67396;42.664;23.382;2023-03-14T12:13:53;7.10;;;2.60;;
78148;SDS011;67396;42.664;23.382;2023-03-14T12:16:22;6.35;;;2.67;;
78148;SDS011;67396;42.664;23.382;2023-03-14T12:18:52;5.20;;;2.50;;
78148;SDS011;67396;42.664;23.382;2023-03-14T12:21:19;3.50;;;2.20;;
78148;SDS011;67396;42.664;23.382;2023-03-14T12:23:52;4.85;;;2.50;;
78148;SDS011;67396;42.664;23.382;2023-03-14T12:26:21;3.88;;;2.35;;
78148;SDS011;67396;42.664;23.382;2023-03-14T12:39:56;4.35;;;2.17;;
78148;SDS011;67396;42.664;23.382;2023-03-14T12:48:08;4.25;;;2.40;;
78148;SDS011;67396;42.664;23.382;2023-03-14T12:56:05;4.28;;;2.40;;
78148;SDS011;67396;42.664;23.382;2023-03-14T13:01:45;2.63;;;2.03;;
78148;SDS011;67396;42.664;23.382;2023-03-14T13:04:19;4.95;;;2.72;;
78148;SDS011;67396;42.664;23.382;2023-03-14T13:06:54;3.13;;;1.80;;
78148;SDS011;67396;42.664;23.382;2023-03-14T13:12:12;2.88;;;1.80;;
78148;SDS011;67396;42.664;23.382;2023-03-14T13:14:48;4.13;;;2.50;;
78148;SDS011;67396;42.664;23.382;2023-03-14T13:17:19;4.32;;;2.28;;
78148;SDS011;67396;42.664;23.382;2023-03-14T13:19:53;5.05;;;2.30;;
78148;SDS011;67396;42.664;23.382;2023-03-14T13:22:24;2.70;;;1.98;;
78148;SDS011;67396;42.664;23.382;2023-03-14T13:24:59;3.35;;;2.30;;
78148;SDS011;67396;42.664;23.382;2023-03-14T13:27:25;3.50;;;2.15;;
78148;SDS011;67396;42.664;23.382;2023-03-14T13:29:51;3.83;;;2.03;;
78148;SDS011;67396;42.664;23.382;2023-03-14T13:32:21;6.32;;;1.63;;
78148;SDS011;67396;42.664;23.382;2023-03-14T13:34:48;7.32;;;2.40;;
78148;SDS011;67396;42.664;23.382;2023-03-14T13:37:20;3.53;;;1.77;;
78148;SDS011;67396;42.664;23.382;2023-03-14T13:39:51;5.47;;;2.40;;
78148;SDS011;67396;42.664;23.382;2023-03-14T13:42:21;3.58;;;2.13;;
78148;SDS011;67396;42.664;23.382;2023-03-14T13:44:51;6.00;;;2.15;;
78148;SDS011;67396;42.664;23.382;2023-03-14T13:47:20;3.50;;;1.75;;
78148;SDS011;67396;42.664;23.382;2023-03-14T13:49:48;4.22;;;1.58;;
78148;SDS011;67396;42.664;23.382;2023-03-14T13:58:48;4.38;;;1.90;;
78148;SDS011;67396;42.664;23.382;2023-03-14T14:01:15;5.10;;;2.35;;
78148;SDS011;67396;42.664;23.382;2023-03-14T14:03:50;2.78;;;1.60;;
78148;SDS011;67396;42.664;23.382;2023-03-14T14:06:37;3.03;;;1.90;;
78148;SDS011;67396;42.664;23.382;2023-03-14T14:09:11;3.38;;;1.83;;
78148;SDS011;67396;42.664;23.382;2023-03-14T14:11:42;3.92;;;2.28;;
78148;SDS011;67396;42.664;23.382;2023-03-14T14:14:11;5.22;;;2.17;;
78148;SDS011;67396;42.664;23.382;2023-03-14T14:16:40;4.10;;;2.38;;
78148;SDS011;67396;42.664;23.382;2023-03-14T14:19:08;3.47;;;2.20;;
78148;SDS011;67396;42.664;23.382;2023-03-14T14:21:34;4.22;;;1.70;;
78148;SDS011;67396;42.664;23.382;2023-03-14T14:23:59;2.22;;;1.60;;
78148;SDS011;67396;42.664;23.382;2023-03-14T14:26:25;3.63;;;2.08;;
78148;SDS011;67396;42.664;23.382;2023-03-14T14:29:01;4.60;;;2.20;;
78148;SDS011;67396;42.664;23.382;2023-03-14T14:31:28;2.45;;;1.80;;
78148;SDS011;67396;42.664;23.382;2023-03-14T14:33:58;3.72;;;1.95;;
78148;SDS011;67396;42.664;23.382;2023-03-14T14:38:57;3.53;;;2.00;;
78148;SDS011;67396;42.664;23.382;2023-03-14T14:41:43;2.25;;;1.30;;
78148;SDS011;67396;42.664;23.382;2023-03-14T14:44:12;6.65;;;2.95;;
78148;SDS011;67396;42.664;23.382;2023-03-14T14:46:39;4.25;;;2.60;;
78148;SDS011;67396;42.664;23.382;2023-03-14T14:49:15;5.32;;;2.92;;
78148;SDS011;67396;42.664;23.382;2023-03-14T14:51:47;4.47;;;2.60;;
78148;SDS011;67396;42.664;23.382;2023-03-14T14:54:16;3.45;;;2.05;;
78148;SDS011;67396;42.664;23.382;2023-03-14T14:56:49;3.03;;;1.90;;
78148;SDS011;67396;42.664;23.382;2023-03-14T14:59:20;4.63;;;1.73;;
78148;SDS011;67396;42.664;23.382;2023-03-14T15:02:00;6.45;;;2.30;;
78148;SDS011;67396;42.664;23.382;2023-03-14T15:04:27;10.38;;;2.60;;
78148;SDS011;67396;42.664;23.382;2023-03-14T15:06:55;2.80;;;1.98;;
78148;SDS011;67396;42.664;23.382;2023-03-14T15:09:21;2.92;;;1.90;;
78148;SDS011;67396;42.664;23.382;2023-03-14T15:11:47;2.95;;;1.67;;
78148;SDS011;67396;42.664;23.382;2023-03-14T15:14:13;7.72;;;2.03;;
78148;SDS011;67396;42.664;23.382;2023-03-14T15:16:38;2.00;;;1.63;;
78148;SDS011;67396;42.664;23.382;2023-03-14T15:19:09;5.78;;;2.20;;
78148;SDS011;67396;42.664;23.382;2023-03-14T15:21:37;5.68;;;2.65;;
78148;SDS011;67396;42.664;23.382;2023-03-14T15:24:04;4.07;;;1.92;;
78148;SDS011;67396;42.664;23.382;2023-03-14T15:26:30;3.28;;;2.10;;
78148;SDS011;67396;42.664;23.382;2023-03-14T15:28:56;4.10;;;1.75;;
78148;SDS011;67396;42.664;23.382;2023-03-14T15:31:21;3.38;;;1.58;;
78148;SDS011;67396;42.664;23.382;2023-03-14T15:33:47;2.85;;;1.90;;
78148;SDS011;67396;42.664;23.382;2023-03-14T15:36:19;4.15;;;2.03;;
78148;SDS011;67396;42.664;23.382;2023-03-14T15:38:45;8.70;;;2.38;;
78148;SDS011;67396;42.664;23.382;2023-03-14T15:41:10;2.20;;;1.60;;
78148;SDS011;67396;42.664;23.382;2023-03-14T15:43:36;3.97;;;2.58;;
78148;SDS011;67396;42.664;23.382;2023-03-14T15:46:04;3.88;;;2.25;;
78148;SDS011;67396;42.664;23.382;2023-03-14T15:48:31;2.90;;;2.10;;
78148;SDS011;67396;42.664;23.382;2023-03-14T15:50:56;8.40;;;2.42;;
78148;SDS011;67396;42.664;23.382;2023-03-14T15:53:22;4.68;;;2.58;;
78148;SDS011;67396;42.664;23.382;2023-03-14T15:55:47;3.10;;;1.95;;
78148;SDS011;67396;42.664;23.382;2023-03-14T15:58:15;3.50;;;1.90;;
78148;SDS011;67396;42.664;23.382;2023-03-14T16:00:42;3.00;;;2.20;;
78148;SDS011;67396;42.664;23.382;2023-03-14T16:03:07;4.78;;;2.25;;
78148;SDS011;67396;42.664;23.382;2023-03-14T16:05:33;3.58;;;1.90;;